Terminal Aerodrome Forecast
Issued by NWS Hastings, NE

Home | Current Version | Previous Version | Text Only | Print | Product List | Glossary On
Versions: 1 2 3 4 5 6 7 8 9 10 11 12 13 14
000
FTUS45 KGID 011120
TAFEAR
TAF
KEAR 011120Z 0112/0212 31005KT P6SM SKC
      TEMPO 0112/0113 5SM BR
     FM011400 03008G15KT P6SM SKC
     FM020100 VRB03KT P6SM SCT100
      AMD LTD TO CLD VIS AND WIND=

USA.gov is the U.S. government's official web portal to all federal, state and local government web resources and services.